Time;durP1;ratioP1;P1;durP2;ratioP2;P2;SDS_P1;SDS_P2;PMS_P1;PMS_P2;Temp;Humidity;BMP_temperature;BMP_pressure;BME280_temperature;BME280_humidity;BME280_pressure;Samples;Min_cycle;Max_cycle;Signal;HPM_P1;HPM_P2
2022/06/07 00:01:08;;;;;;;5.63;1.90;;;20.40;80.60;;;;;;5038116;28;20449;-84
2022/06/07 00:03:35;;;;;;;2.43;1.80;;;20.30;80.30;;;;;;5038309;28;20442;-84
2022/06/07 00:06:03;;;;;;;2.40;2.20;;;20.30;80.70;;;;;;5037981;28;20468;-84
2022/06/07 00:08:31;;;;;;;3.70;1.90;;;20.30;80.40;;;;;;5038806;28;20464;-84
2022/06/07 00:10:58;;;;;;;3.50;1.83;;;20.30;81.30;;;;;;5038995;28;20908;-85
2022/06/07 00:13:25;;;;;;;2.90;1.80;;;20.30;81.40;;;;;;5039512;28;20450;-86
2022/06/07 00:15:52;;;;;;;2.63;1.73;;;20.30;81.00;;;;;;5038849;28;20473;-86
2022/06/07 00:18:19;;;;;;;2.40;2.20;;;20.30;81.10;;;;;;5038763;28;20440;-87
2022/06/07 00:20:45;;;;;;;2.00;1.73;;;20.30;80.90;;;;;;5039382;28;20488;-86
2022/06/07 00:23:16;;;;;;;3.90;1.80;;;20.30;81.50;;;;;;5042406;28;20444;-85
2022/06/07 00:25:46;;;;;;;3.20;1.87;;;20.20;82.40;;;;;;5047802;28;20479;-87
2022/06/07 00:28:13;;;;;;;3.60;1.70;;;20.20;80.10;;;;;;5040762;28;20484;-88
2022/06/07 00:30:41;;;;;;;1.87;1.60;;;20.20;79.80;;;;;;5040919;28;20460;-86
2022/06/07 00:33:07;;;;;;;3.00;1.70;;;20.10;79.40;;;;;;5040501;28;20452;-87
2022/06/07 00:35:34;;;;;;;2.13;1.90;;;20.10;80.10;;;;;;5041121;28;20475;-85
2022/06/07 00:38:01;;;;;;;1.70;1.43;;;20.10;79.60;;;;;;5040887;28;20452;-87
2022/06/07 00:40:29;;;;;;;3.40;1.40;;;20.10;79.20;;;;;;5040099;28;20480;-86
2022/06/07 00:42:56;;;;;;;2.03;1.27;;;20.00;79.10;;;;;;5057333;28;20432;-86
2022/06/07 00:45:24;;;;;;;1.80;1.50;;;20.00;79.40;;;;;;5056175;28;20476;-84
2022/06/07 00:47:51;;;;;;;5.67;1.63;;;20.00;79.20;;;;;;5053617;28;20448;-85
2022/06/07 00:50:25;;;;;;;1.77;1.50;;;20.00;79.60;;;;;;5046212;28;20452;-86
2022/06/07 00:52:52;;;;;;;2.07;1.40;;;19.90;79.80;;;;;;5047353;28;20454;-87
2022/06/07 00:55:19;;;;;;;2.73;1.80;;;19.80;79.90;;;;;;5039921;28;20852;-86
2022/06/07 00:57:47;;;;;;;2.40;1.50;;;19.80;80.70;;;;;;5041214;28;20449;-87
2022/06/07 01:00:18;;;;;;;6.40;1.93;;;19.70;80.30;;;;;;5042929;28;20491;-84
2022/06/07 01:02:44;;;;;;;1.70;1.50;;;19.70;80.50;;;;;;5055471;28;20448;-84
2022/06/07 01:05:11;;;;;;;2.30;1.50;;;19.70;81.40;;;;;;5052500;28;20471;-83
2022/06/07 01:13:20;;;;;;;2.47;1.70;;;19.70;81.20;;;;;;5042443;28;20459;-85
2022/06/07 01:15:47;;;;;;;4.37;1.40;;;19.70;81.40;;;;;;5046020;28;20464;-83
2022/06/07 01:18:16;;;;;;;2.07;1.57;;;19.60;84.50;;;;;;5051816;28;20448;-84
2022/06/07 01:20:43;;;;;;;2.63;1.53;;;19.50;85.20;;;;;;5044483;28;20491;-86
2022/06/07 01:23:11;;;;;;;3.23;1.77;;;19.40;85.70;;;;;;5041006;28;20455;-85
2022/06/07 01:25:38;;;;;;;2.10;1.40;;;19.40;86.30;;;;;;5040910;28;20466;-86
2022/06/07 01:28:05;;;;;;;1.43;1.20;;;19.40;85.20;;;;;;5039916;28;20462;-85
2022/06/07 01:30:31;;;;;;;1.43;1.30;;;19.40;83.60;;;;;;5046784;28;20446;-84
2022/06/07 01:32:58;;;;;;;2.70;1.90;;;19.30;83.50;;;;;;5051768;28;20453;-84
2022/06/07 01:35:25;;;;;;;2.30;1.20;;;19.30;84.10;;;;;;5048781;28;20471;-87
2022/06/07 01:37:51;;;;;;;2.37;1.20;;;19.30;84.80;;;;;;5042616;28;21006;-86
2022/06/07 01:43:04;;;;;;;1.53;1.27;;;19.20;84.90;;;;;;5039917;28;20434;-87
2022/06/07 01:45:31;;;;;;;4.90;1.43;;;19.10;84.40;;;;;;5036304;28;20951;-84
2022/06/07 01:47:58;;;;;;;2.63;1.20;;;19.10;84.70;;;;;;5034923;28;20459;-84
2022/06/07 01:50:24;;;;;;;2.73;1.50;;;19.10;84.60;;;;;;5035955;28;20940;-84
2022/06/07 01:52:51;;;;;;;2.60;1.63;;;19.20;85.30;;;;;;5048007;28;20448;-84
2022/06/07 01:55:19;;;;;;;2.57;1.53;;;19.10;84.80;;;;;;5049165;28;20474;-84
2022/06/07 01:57:46;;;;;;;2.70;1.30;;;19.10;86.00;;;;;;5049420;28;20453;-86
2022/06/07 02:00:14;;;;;;;4.13;1.50;;;19.10;87.20;;;;;;5044688;28;20487;-87
2022/06/07 02:02:41;;;;;;;3.30;1.27;;;19.10;87.50;;;;;;5038638;28;20524;-86
2022/06/07 02:05:08;;;;;;;1.80;1.40;;;19.00;88.50;;;;;;5038101;28;20474;-88
2022/06/07 02:07:35;;;;;;;1.70;1.27;;;18.90;87.30;;;;;;5038683;28;20452;-86
2022/06/07 02:10:01;;;;;;;2.47;1.13;;;18.90;87.90;;;;;;5038182;28;20452;-87
2022/06/07 02:12:31;;;;;;;2.40;2.20;;;18.90;89.00;;;;;;5037016;28;20448;-86
2022/06/07 02:14:59;;;;;;;2.37;1.33;;;18.90;89.90;;;;;;5036484;28;20489;-87
2022/06/07 02:17:25;;;;;;;2.87;1.20;;;18.80;90.10;;;;;;5037272;28;20453;-86
2022/06/07 02:19:52;;;;;;;3.57;1.40;;;18.70;90.30;;;;;;5037788;28;20479;-85
2022/06/07 02:22:19;;;;;;;1.70;1.33;;;18.70;90.60;;;;;;5037942;28;20453;-84
2022/06/07 02:24:45;;;;;;;1.90;1.47;;;18.70;90.60;;;;;;5038145;28;20452;-85
2022/06/07 02:27:16;;;;;;;2.10;1.63;;;18.70;90.20;;;;;;5037999;28;20931;-86
2022/06/07 02:29:48;;;;;;;9.33;1.80;;;18.70;90.40;;;;;;5041719;28;20478;-84
2022/06/07 02:32:19;;;;;;;2.47;1.73;;;18.70;90.60;;;;;;5049190;28;20447;-85
2022/06/07 02:34:48;;;;;;;2.53;1.30;;;18.60;90.20;;;;;;5046757;28;20448;-83
2022/06/07 02:37:16;;;;;;;2.33;1.70;;;18.60;89.80;;;;;;5040250;28;20799;-85
2022/06/07 02:39:43;;;;;;;1.53;1.23;;;18.60;90.00;;;;;;5037829;28;20482;-85
2022/06/07 02:42:13;;;;;;;2.10;1.67;;;18.50;89.70;;;;;;5038147;28;20526;-85
2022/06/07 02:44:40;;;;;;;4.13;1.23;;;18.50;90.50;;;;;;5037921;28;20461;-87
2022/06/07 02:47:08;;;;;;;1.73;1.50;;;18.40;90.50;;;;;;5037618;28;20474;-85
2022/06/07 02:49:35;;;;;;;2.60;1.90;;;18.50;90.40;;;;;;5041845;28;20448;-85
2022/06/07 02:52:02;;;;;;;2.07;1.47;;;18.40;90.10;;;;;;5053735;28;20442;-86
2022/06/07 02:54:29;;;;;;;1.43;1.10;;;18.40;89.60;;;;;;5044339;28;20947;-84
2022/06/07 02:56:56;;;;;;;2.13;1.17;;;18.40;89.70;;;;;;5038998;28;20529;-85
2022/06/07 02:59:23;;;;;;;2.27;1.40;;;18.40;90.10;;;;;;5058056;28;20437;-85
2022/06/07 03:01:49;;;;;;;1.70;1.57;;;18.40;90.30;;;;;;5058226;28;20433;-87
2022/06/07 03:04:18;;;;;;;2.00;1.53;;;18.40;90.20;;;;;;5049842;28;20847;-85
2022/06/07 03:06:45;;;;;;;3.97;1.60;;;18.40;89.90;;;;;;5035993;28;20466;-87
2022/06/07 03:09:12;;;;;;;1.50;1.40;;;18.40;89.90;;;;;;5035509;28;20446;-85
2022/06/07 03:11:38;;;;;;;1.93;1.47;;;18.40;89.50;;;;;;5037701;28;20841;-86
2022/06/07 03:14:06;;;;;;;1.30;1.10;;;18.40;88.80;;;;;;5039875;28;20452;-86
2022/06/07 03:16:33;;;;;;;2.37;1.67;;;18.40;88.90;;;;;;5039650;28;20458;-84
2022/06/07 03:19:00;;;;;;;2.03;1.67;;;18.40;89.30;;;;;;5038666;28;20450;-85
2022/06/07 03:21:29;;;;;;;2.37;1.10;;;18.30;89.10;;;;;;5039124;28;20520;-84
2022/06/07 03:23:56;;;;;;;2.40;1.90;;;18.30;89.10;;;;;;5050285;28;20460;-85
2022/06/07 03:26:22;;;;;;;2.63;1.40;;;18.30;90.00;;;;;;5052979;28;20461;-85
2022/06/07 03:28:49;;;;;;;1.67;1.23;;;18.30;90.10;;;;;;5051347;28;20977;-85
2022/06/07 03:31:18;;;;;;;1.83;1.50;;;18.20;89.90;;;;;;5044432;28;20934;-85
2022/06/07 03:33:46;;;;;;;3.70;1.27;;;18.30;90.10;;;;;;5041903;28;20450;-85
2022/06/07 03:36:17;;;;;;;2.10;1.30;;;18.30;90.20;;;;;;5041250;28;20476;-86
2022/06/07 03:38:45;;;;;;;1.80;1.23;;;18.30;90.10;;;;;;5040837;28;20446;-85
2022/06/07 03:41:17;;;;;;;1.97;1.30;;;18.40;89.90;;;;;;5041386;28;20477;-86
2022/06/07 03:43:43;;;;;;;1.80;1.50;;;18.40;90.30;;;;;;5041956;28;20480;-86
2022/06/07 03:46:13;;;;;;;4.80;1.40;;;18.40;90.20;;;;;;5043707;28;20472;-85
2022/06/07 03:48:40;;;;;;;4.03;1.80;;;18.40;90.00;;;;;;5041137;28;20469;-87
2022/06/07 03:51:07;;;;;;;1.40;1.17;;;18.40;89.90;;;;;;5041473;28;20450;-85
2022/06/07 03:53:35;;;;;;;1.90;1.50;;;18.40;90.00;;;;;;5040604;28;20452;-86
2022/06/07 03:56:04;;;;;;;1.47;1.30;;;18.40;90.40;;;;;;5040925;28;20479;-85
2022/06/07 03:58:30;;;;;;;3.47;1.70;;;18.40;90.60;;;;;;5047420;28;20446;-85
2022/06/07 04:00:59;;;;;;;2.10;1.57;;;18.40;90.60;;;;;;5045546;28;20485;-85
2022/06/07 04:03:26;;;;;;;3.27;1.93;;;18.40;90.60;;;;;;5040880;28;20446;-85
2022/06/07 04:05:53;;;;;;;2.47;1.50;;;18.40;90.40;;;;;;5049192;28;20466;-83
2022/06/07 04:08:20;;;;;;;1.77;1.30;;;18.30;90.10;;;;;;5054117;28;20451;-85
2022/06/07 04:10:49;;;;;;;1.60;1.37;;;18.30;89.90;;;;;;5044420;28;20438;-84
2022/06/07 04:13:19;;;;;;;2.53;2.23;;;18.30;91.00;;;;;;5050104;28;20438;-84
2022/06/07 04:15:45;;;;;;;4.77;2.50;;;18.30;92.30;;;;;;5050639;28;20465;-85
2022/06/07 04:18:12;;;;;;;3.30;3.00;;;18.30;93.40;;;;;;5047261;28;20958;-85
2022/06/07 04:20:40;;;;;;;3.67;2.83;;;18.30;94.90;;;;;;5050838;28;20485;-86
2022/06/07 04:23:08;;;;;;;4.33;3.57;;;18.20;95.70;;;;;;5041905;28;20453;-86
2022/06/07 04:25:35;;;;;;;4.20;3.73;;;18.30;96.70;;;;;;5040736;28;20470;-85
2022/06/07 04:28:02;;;;;;;3.83;2.30;;;18.20;97.10;;;;;;5039533;28;20452;-85
2022/06/07 04:30:31;;;;;;;3.07;2.77;;;18.20;96.00;;;;;;5045741;28;20446;-85
2022/06/07 04:32:58;;;;;;;6.03;3.67;;;18.10;96.70;;;;;;5060149;28;20517;-86
2022/06/07 04:35:25;;;;;;;4.80;3.60;;;18.10;97.70;;;;;;5053053;28;20470;-84
2022/06/07 04:37:53;;;;;;;8.07;3.97;;;18.10;98.30;;;;;;5038782;28;20487;-84
2022/06/07 04:40:20;;;;;;;5.57;3.17;;;18.10;98.50;;;;;;5037675;28;20479;-84
2022/06/07 04:42:47;;;;;;;4.30;3.30;;;18.10;98.80;;;;;;5037274;28;20455;-84
2022/06/07 04:45:15;;;;;;;3.93;2.07;;;18.10;99.20;;;;;;5019449;28;20994;-84
2022/06/07 04:47:44;;;;;;;6.77;2.70;;;18.00;97.70;;;;;;5018019;28;20500;-84
2022/06/07 04:50:15;;;;;;;2.60;2.20;;;18.00;97.80;;;;;;5020075;28;20456;-82
2022/06/07 04:52:42;;;;;;;3.30;2.13;;;18.00;98.20;;;;;;5032219;28;20446;-83
2022/06/07 04:57:45;;;;;;;9.00;3.10;;;18.10;98.20;;;;;;5031039;28;20480;-87
2022/06/07 05:00:15;;;;;;;5.30;2.90;;;18.10;98.50;;;;;;5034813;28;20489;-86
2022/06/07 05:02:43;;;;;;;2.67;2.40;;;18.10;99.10;;;;;;5036499;28;20935;-86
2022/06/07 05:05:11;;;;;;;7.87;3.00;;;18.10;98.70;;;;;;5036627;28;20513;-86
2022/06/07 05:07:39;;;;;;;4.70;2.93;;;18.10;98.80;;;;;;5035268;28;20453;-86
2022/06/07 05:10:08;;;;;;;3.63;3.30;;;18.20;99.60;;;;;;5033984;28;20451;-86
2022/06/07 05:12:35;;;;;;;4.23;3.23;;;18.20;99.50;;;;;;5033523;28;20454;-86
2022/06/07 05:15:02;;;;;;;7.60;2.60;;;18.30;99.30;;;;;;5033570;28;20954;-85
2022/06/07 05:17:30;;;;;;;5.43;2.50;;;18.30;99.00;;;;;;5052087;28;20473;-86
2022/06/07 05:19:58;;;;;;;4.63;2.70;;;18.30;99.00;;;;;;5050622;28;20461;-86
2022/06/07 05:22:26;;;;;;;2.40;2.10;;;18.40;98.60;;;;;;5036158;28;20434;-85
2022/06/07 05:24:54;;;;;;;4.80;2.40;;;18.40;98.40;;;;;;5035535;28;20461;-85
2022/06/07 05:27:23;;;;;;;3.60;2.17;;;18.30;98.30;;;;;;5050004;28;20455;-86
2022/06/07 05:29:52;;;;;;;2.50;2.30;;;18.30;98.30;;;;;;5054081;28;20450;-85
2022/06/07 05:32:20;;;;;;;2.30;1.80;;;18.30;98.50;;;;;;5056300;28;20460;-86
2022/06/07 05:34:47;;;;;;;3.53;2.37;;;18.20;98.50;;;;;;5048131;28;20439;-86
2022/06/07 05:37:23;;;;;;;4.40;1.60;;;18.20;98.60;;;;;;5036518;28;20457;-85
2022/06/07 05:39:50;;;;;;;2.60;1.57;;;18.20;98.10;;;;;;5036515;28;20458;-86
2022/06/07 05:42:18;;;;;;;2.10;1.90;;;18.20;97.90;;;;;;5045962;28;20480;-87
2022/06/07 05:44:45;;;;;;;2.63;2.10;;;18.30;98.00;;;;;;5050319;28;20436;-86
2022/06/07 05:47:11;;;;;;;3.83;1.93;;;18.40;97.80;;;;;;5037190;28;20982;-85
2022/06/07 05:49:38;;;;;;;4.23;1.70;;;18.40;96.40;;;;;;5035834;28;20447;-86
2022/06/07 05:52:07;;;;;;;6.47;2.47;;;18.60;95.90;;;;;;5044932;28;20456;-83
2022/06/07 05:54:38;;;;;;;2.13;1.73;;;18.80;95.70;;;;;;5038792;28;20999;-83
2022/06/07 05:57:06;;;;;;;1.60;1.40;;;19.00;95.80;;;;;;5029578;28;20480;-83
2022/06/07 05:59:33;;;;;;;2.53;1.53;;;19.20;94.30;;;;;;5031841;28;20971;-85
2022/06/07 06:01:59;;;;;;;3.00;2.00;;;19.30;94.30;;;;;;5031721;28;20487;-84
2022/06/07 06:04:26;;;;;;;4.53;2.10;;;19.40;93.80;;;;;;5023575;28;20448;-84
2022/06/07 06:06:55;;;;;;;3.17;1.73;;;19.60;93.30;;;;;;5026030;28;20476;-84
2022/06/07 06:12:08;;;;;;;3.00;1.70;;;19.80;92.50;;;;;;5036531;28;20464;-85
2022/06/07 06:14:35;;;;;;;2.47;1.93;;;19.80;92.30;;;;;;5026252;28;20446;-83
2022/06/07 06:17:02;;;;;;;5.10;2.37;;;19.80;92.20;;;;;;5031784;28;20464;-84
2022/06/07 06:19:28;;;;;;;2.80;1.90;;;20.00;92.40;;;;;;5033783;28;20455;-86
2022/06/07 06:21:55;;;;;;;2.20;1.40;;;20.10;92.40;;;;;;5029752;28;20483;-88
2022/06/07 06:24:23;;;;;;;4.50;1.90;;;20.30;92.50;;;;;;5037549;28;20449;-84
2022/06/07 06:26:51;;;;;;;2.33;1.60;;;20.70;91.60;;;;;;5025915;28;20564;-85
2022/06/07 06:29:20;;;;;;;2.10;1.53;;;20.90;90.70;;;;;;5045576;28;20436;-83
2022/06/07 06:31:50;;;;;;;3.60;1.60;;;21.00;90.50;;;;;;5016987;28;20450;-84
2022/06/07 06:34:16;;;;;;;2.73;1.60;;;21.40;89.40;;;;;;5059524;28;20420;-82
2022/06/07 06:36:44;;;;;;;1.70;1.40;;;21.60;87.00;;;;;;5065411;28;20992;-83
2022/06/07 06:39:11;;;;;;;6.03;1.50;;;21.60;86.20;;;;;;5061283;28;20469;-83
2022/06/07 06:41:41;;;;;;;5.80;1.93;;;21.40;85.10;;;;;;5054895;28;20467;-84
2022/06/07 06:44:10;;;;;;;2.97;1.50;;;21.50;85.70;;;;;;5049969;28;20938;-84
2022/06/07 06:46:41;;;;;;;1.90;1.40;;;21.80;84.60;;;;;;5062685;28;20846;-84
2022/06/07 06:49:07;;;;;;;5.63;2.03;;;23.00;82.70;;;;;;5074393;28;20443;-83
2022/06/07 06:51:35;;;;;;;2.30;1.23;;;24.20;78.40;;;;;;5060759;28;20448;-85
2022/06/07 06:54:04;;;;;;;1.43;1.10;;;25.20;74.60;;;;;;5051311;28;20862;-85
2022/06/07 06:56:31;;;;;;;1.60;1.07;;;25.50;69.80;;;;;;5036254;28;20576;-85
2022/06/07 06:58:59;;;;;;;3.57;1.93;;;25.40;70.30;;;;;;5036298;28;20532;-85
2022/06/07 07:01:29;;;;;;;2.37;1.40;;;25.00;71.60;;;;;;5035974;28;20483;-85
2022/06/07 07:03:58;;;;;;;2.70;1.30;;;24.90;72.40;;;;;;5036089;28;20449;-85
2022/06/07 07:06:26;;;;;;;2.13;1.50;;;25.10;70.30;;;;;;5035631;28;20472;-85
2022/06/07 07:08:54;;;;;;;2.03;1.53;;;25.40;70.70;;;;;;5035790;28;20445;-86
2022/06/07 07:11:24;;;;;;;2.10;1.40;;;26.60;67.00;;;;;;5054408;28;20434;-84
2022/06/07 07:13:53;;;;;;;2.80;1.17;;;26.70;65.20;;;;;;5052092;28;20514;-84
2022/06/07 07:16:22;;;;;;;1.53;0.97;;;26.80;63.80;;;;;;5045799;28;20529;-85
2022/06/07 07:18:49;;;;;;;2.67;1.57;;;27.00;62.90;;;;;;5035987;28;20452;-85
2022/06/07 07:21:20;;;;;;;2.30;1.20;;;26.80;62.50;;;;;;5035718;28;20522;-85
2022/06/07 07:23:47;;;;;;;2.67;1.00;;;26.20;62.90;;;;;;5036799;28;20447;-84
2022/06/07 07:26:16;;;;;;;1.63;1.13;;;25.70;64.20;;;;;;5039062;28;20465;-85
2022/06/07 07:28:43;;;;;;;2.63;1.20;;;25.20;66.40;;;;;;5035347;28;20833;-85
2022/06/07 07:31:14;;;;;;;2.07;1.10;;;24.90;67.50;;;;;;5036644;28;20449;-85
2022/06/07 07:33:41;;;;;;;2.50;1.53;;;24.50;68.10;;;;;;5036824;28;20445;-85
2022/06/07 07:36:09;;;;;;;2.63;1.03;;;24.40;68.90;;;;;;5037144;28;20981;-85
2022/06/07 07:38:39;;;;;;;1.60;1.10;;;24.80;68.30;;;;;;5036089;28;20480;-85
2022/06/07 07:41:19;;;;;;;2.70;1.53;;;25.30;66.30;;;;;;5035689;28;20479;-85
2022/06/07 07:43:47;;;;;;;2.40;1.70;;;25.60;64.60;;;;;;5035743;28;20483;-85
2022/06/07 07:46:14;;;;;;;1.70;1.23;;;25.60;63.90;;;;;;5035409;28;20874;-85
2022/06/07 07:48:41;;;;;;;5.20;1.50;;;25.60;64.10;;;;;;5035271;28;20672;-84
2022/06/07 07:51:09;;;;;;;4.00;1.40;;;25.60;64.70;;;;;;5036588;28;20838;-85
2022/06/07 07:53:38;;;;;;;1.33;0.90;;;26.20;64.40;;;;;;5036944;28;20451;-85
2022/06/07 07:56:08;;;;;;;2.53;1.30;;;26.20;61.30;;;;;;5035663;28;20481;-85
2022/06/07 07:58:35;;;;;;;3.37;1.10;;;26.20;62.40;;;;;;5045930;28;20473;-85
2022/06/07 08:01:08;;;;;;;3.57;1.63;;;27.40;60.60;;;;;;5048194;28;20445;-85
2022/06/07 08:03:35;;;;;;;3.77;1.20;;;28.40;58.40;;;;;;5034849;28;20461;-85
2022/06/07 08:06:02;;;;;;;2.00;1.37;;;28.30;57.20;;;;;;5034304;28;20507;-85
2022/06/07 08:08:29;;;;;;;1.70;0.90;;;28.30;56.60;;;;;;5034980;28;20974;-85
2022/06/07 08:10:57;;;;;;;3.43;1.10;;;28.00;57.00;;;;;;5034717;28;20499;-85
2022/06/07 08:13:24;;;;;;;3.27;0.90;;;27.70;57.20;;;;;;5034397;28;20445;-85
2022/06/07 08:15:51;;;;;;;1.33;1.00;;;27.40;57.60;;;;;;5034709;28;20465;-85
2022/06/07 08:18:17;;;;;;;1.87;1.23;;;26.90;57.50;;;;;;5034982;28;20441;-85
2022/06/07 08:20:44;;;;;;;2.23;1.50;;;26.60;58.60;;;;;;5035446;28;20452;-85
2022/06/07 08:23:12;;;;;;;1.97;1.20;;;26.70;59.00;;;;;;5051580;28;20474;-84
2022/06/07 08:25:39;;;;;;;2.03;1.20;;;26.90;58.60;;;;;;5048475;28;20472;-84
2022/06/07 08:28:08;;;;;;;2.07;1.00;;;27.10;56.80;;;;;;5055149;28;20449;-84
2022/06/07 08:30:36;;;;;;;1.93;1.33;;;27.00;56.80;;;;;;5043113;28;20953;-84
2022/06/07 08:37:32;;;;;;;2.50;1.23;;;26.90;56.70;;;;;;5036837;28;20507;-84
2022/06/07 08:38:35;;;;;;;1.87;1.10;;;26.80;56.90;;;;;;5034060;28;20487;-84
2022/06/07 08:41:02;;;;;;;2.20;1.27;;;26.50;57.70;;;;;;5034245;28;20437;-85
2022/06/07 08:43:30;;;;;;;2.03;1.30;;;25.20;57.60;;;;;;5035511;28;20445;-84
2022/06/07 08:45:58;;;;;;;3.20;1.30;;;24.80;59.80;;;;;;5035036;28;20465;-84
2022/06/07 08:48:28;;;;;;;3.57;1.47;;;24.80;60.40;;;;;;5033873;28;20445;-84
2022/06/07 08:51:12;;;;;;;2.63;1.33;;;25.50;59.50;;;;;;5034543;28;20539;-85
2022/06/07 08:53:41;;;;;;;3.87;1.80;;;25.70;59.10;;;;;;5038459;28;21138;-84
2022/06/07 08:56:14;;;;;;;2.00;0.93;;;25.60;59.40;;;;;;5055298;28;20503;-84
2022/06/07 08:58:49;;;;;;;1.80;1.10;;;26.30;59.20;;;;;;5045963;28;20450;-84
2022/06/07 09:01:24;;;;;;;4.10;1.00;;;26.80;57.20;;;;;;5055475;28;20443;-82
2022/06/07 09:04:02;;;;;;;2.50;1.27;;;27.50;56.60;;;;;;5056743;28;20451;-83
2022/06/07 09:06:33;;;;;;;5.10;1.97;;;28.90;55.10;;;;;;5044646;28;20488;-89
2022/06/07 09:09:01;;;;;;;3.93;1.20;;;31.00;52.20;;;;;;5038475;28;20448;-85
2022/06/07 09:14:26;;;;;;;1.43;0.90;;;33.90;46.40;;;;;;5050578;28;20468;-85
2022/06/07 09:16:55;;;;;;;1.77;1.47;;;35.00;44.80;;;;;;5039372;28;20476;-86
2022/06/07 09:19:28;;;;;;;1.40;0.90;;;33.80;44.40;;;;;;5039984;28;20445;-83
2022/06/07 09:21:59;;;;;;;1.83;1.03;;;32.20;45.90;;;;;;5054490;28;20591;-85
2022/06/07 09:24:31;;;;;;;2.47;1.43;;;31.10;47.40;;;;;;5051311;28;20445;-84
2022/06/07 09:27:15;;;;;;;2.37;1.17;;;29.40;49.80;;;;;;5048271;28;20476;-84
2022/06/07 09:29:52;;;;;;;2.73;1.50;;;27.10;54.50;;;;;;5041680;28;21026;-84
2022/06/07 09:32:22;;;;;;;2.00;1.80;;;26.60;56.80;;;;;;5037936;28;20939;-84
2022/06/07 09:34:54;;;;;;;2.30;1.83;;;26.20;59.50;;;;;;5041666;28;20414;-84
2022/06/07 09:37:27;;;;;;;2.17;1.60;;;26.00;60.30;;;;;;5038487;28;21019;-85
2022/06/07 09:40:00;;;;;;;3.37;2.20;;;25.70;60.70;;;;;;5036887;28;20450;-84
2022/06/07 09:42:29;;;;;;;1.80;1.20;;;25.30;61.30;;;;;;5034981;28;20555;-84
2022/06/07 09:45:02;;;;;;;2.30;1.33;;;25.00;59.10;;;;;;5036133;28;20463;-84
2022/06/07 09:47:31;;;;;;;3.20;1.77;;;24.70;60.90;;;;;;5035181;28;20551;-85
2022/06/07 09:50:00;;;;;;;2.03;1.80;;;24.40;65.70;;;;;;5035623;28;20445;-84
2022/06/07 09:52:31;;;;;;;3.33;1.97;;;24.20;66.50;;;;;;5035350;28;20452;-85
2022/06/07 09:55:00;;;;;;;2.13;1.83;;;24.20;65.50;;;;;;5034198;28;20461;-85
2022/06/07 09:57:35;;;;;;;1.80;1.37;;;24.40;66.00;;;;;;5033191;28;20477;-84
2022/06/07 10:00:17;;;;;;;5.87;1.70;;;24.50;65.60;;;;;;5033121;28;20453;-85
2022/06/07 10:03:16;;;;;;;3.43;1.70;;;25.50;64.20;;;;;;5033668;28;21017;-84
2022/06/07 10:05:50;;;;;;;4.13;1.80;;;25.90;62.30;;;;;;5034414;28;20467;-84
2022/06/07 10:08:26;;;;;;;4.17;2.00;;;24.80;63.00;;;;;;5053221;28;20474;-84
2022/06/07 10:10:57;;;;;;;2.20;1.70;;;24.80;64.50;;;;;;5055094;28;20445;-84
2022/06/07 10:13:35;;;;;;;2.80;1.60;;;24.70;61.00;;;;;;5038411;28;20453;-85
2022/06/07 10:16:10;;;;;;;2.47;1.40;;;24.50;60.90;;;;;;5034178;28;20473;-85
2022/06/07 10:18:46;;;;;;;2.20;1.67;;;24.50;62.20;;;;;;5035714;28;20479;-85
2022/06/07 10:21:27;;;;;;;2.73;2.33;;;24.40;63.50;;;;;;5055949;28;20468;-84
2022/06/07 10:24:15;;;;;;;2.63;2.00;;;24.30;65.70;;;;;;5045538;28;20496;-85
2022/06/07 10:26:55;;;;;;;2.90;1.80;;;24.00;67.00;;;;;;5035298;28;20484;-85
2022/06/07 10:29:40;;;;;;;3.67;1.80;;;23.80;68.40;;;;;;5036214;28;20452;-85
2022/06/07 10:32:20;;;;;;;2.00;1.70;;;24.00;68.30;;;;;;5034394;28;20485;-85
2022/06/07 10:34:53;;;;;;;2.00;1.70;;;24.00;68.50;;;;;;5033580;28;20449;-85
2022/06/07 10:37:29;;;;;;;2.43;1.87;;;24.10;69.70;;;;;;5033097;28;20480;-85
2022/06/07 10:40:09;;;;;;;3.43;2.00;;;24.10;69.50;;;;;;5033689;28;20445;-85
2022/06/07 10:42:43;;;;;;;4.80;1.90;;;23.80;71.80;;;;;;5035826;28;21080;-84
2022/06/07 10:45:19;;;;;;;3.40;1.90;;;23.80;68.30;;;;;;5035023;28;20441;-85
2022/06/07 10:47:56;;;;;;;2.23;1.50;;;23.70;66.20;;;;;;5035101;28;20480;-85
2022/06/07 10:50:27;;;;;;;4.00;1.40;;;23.70;66.70;;;;;;5034986;28;20828;-85
2022/06/07 10:53:01;;;;;;;1.90;1.63;;;23.70;66.10;;;;;;5035598;28;20476;-84
2022/06/07 10:55:34;;;;;;;4.07;1.70;;;23.90;65.70;;;;;;5035082;28;20475;-85
2022/06/07 10:58:13;;;;;;;2.97;1.70;;;24.10;64.50;;;;;;5040232;22;20490;-84
2022/06/07 11:00:43;;;;;;;2.13;1.87;;;24.30;64.30;;;;;;5019740;28;20449;-82
2022/06/07 11:03:23;;;;;;;3.63;1.50;;;24.60;63.90;;;;;;5029330;28;20485;-83
2022/06/07 11:11:36;;;;;;;1.70;1.43;;;24.80;62.00;;;;;;5022580;28;20437;-83
2022/06/07 11:14:16;;;;;;;2.60;1.50;;;24.80;63.40;;;;;;5024147;28;20962;-84
2022/06/07 11:16:51;;;;;;;2.80;1.70;;;24.50;62.80;;;;;;5023259;28;20458;-84
2022/06/07 11:19:20;;;;;;;3.17;1.70;;;24.60;63.30;;;;;;5022598;28;20445;-83
2022/06/07 11:21:49;;;;;;;4.67;2.23;;;25.10;62.70;;;;;;5022374;28;20453;-84
2022/06/07 11:24:21;;;;;;;2.10;1.43;;;25.00;62.70;;;;;;5021175;28;20450;-82
2022/06/07 11:27:18;;;;;;;3.70;1.77;;;24.80;61.90;;;;;;5020559;28;20508;-85
2022/06/07 11:29:45;;;;;;;2.33;1.50;;;25.00;62.80;;;;;;5022142;28;20446;-84
2022/06/07 11:32:42;;;;;;;3.60;1.50;;;25.30;65.30;;;;;;5022728;28;20441;-85
2022/06/07 11:35:46;;;;;;;1.70;1.50;;;25.40;62.30;;;;;;5024515;28;20477;-85
2022/06/07 11:38:54;;;;;;;3.13;1.70;;;25.40;61.10;;;;;;5022451;28;20481;-82
2022/06/07 11:41:44;;;;;;;3.23;1.57;;;25.30;61.10;;;;;;5024373;28;20474;-83
2022/06/07 11:44:35;;;;;;;3.60;2.03;;;25.50;63.20;;;;;;5018966;28;20520;-84
2022/06/07 11:47:19;;;;;;;2.10;1.77;;;25.60;60.70;;;;;;5023092;28;20470;-85
2022/06/07 11:49:58;;;;;;;4.80;1.60;;;26.10;61.30;;;;;;5021875;28;20461;-84
2022/06/07 11:52:28;;;;;;;1.63;1.20;;;28.70;56.90;;;;;;5029824;28;20476;-84
2022/06/07 11:54:59;;;;;;;3.10;1.60;;;31.80;52.90;;;;;;5024850;28;20446;-84
2022/06/07 11:57:30;;;;;;;1.67;1.37;;;32.30;51.30;;;;;;5022676;28;20478;-84
2022/06/07 11:59:59;;;;;;;3.30;1.70;;;31.00;50.20;;;;;;5029376;28;20446;-84
2022/06/07 12:02:30;;;;;;;1.90;1.23;;;29.60;51.70;;;;;;5025424;28;20486;-83
2022/06/07 12:05:26;;;;;;;1.97;1.60;;;27.60;53.40;;;;;;5025950;28;20452;-84
2022/06/07 12:07:58;;;;;;;2.40;1.23;;;27.10;54.60;;;;;;5010237;28;20545;-83
2022/06/07 12:10:33;;;;;;;5.20;1.60;;;27.00;55.20;;;;;;5023320;28;20452;-83
2022/06/07 12:13:03;;;;;;;2.67;1.27;;;26.50;57.10;;;;;;5024737;28;20442;-84
2022/06/07 12:15:37;;;;;;;4.67;1.70;;;26.10;56.50;;;;;;5024793;28;20457;-84
2022/06/07 12:18:06;;;;;;;2.47;1.47;;;25.80;57.50;;;;;;5038517;28;20462;-82
2022/06/07 12:20:36;;;;;;;3.40;1.17;;;25.60;58.20;;;;;;5035678;28;20465;-84
2022/06/07 12:23:20;;;;;;;2.60;1.27;;;24.90;58.30;;;;;;5035886;28;20505;-83
2022/06/07 12:25:57;;;;;;;2.27;1.03;;;24.80;60.20;;;;;;4994764;28;20456;-82
2022/06/07 12:28:28;;;;;;;5.03;2.37;;;25.10;59.90;;;;;;4989404;28;20484;-83
2022/06/07 12:30:55;;;;;;;4.00;2.20;;;25.10;59.80;;;;;;4985011;28;20447;-83
2022/06/07 12:33:28;;;;;;;5.60;1.33;;;25.30;60.00;;;;;;4986504;28;20443;-83
2022/06/07 12:35:59;;;;;;;1.50;1.23;;;25.60;58.10;;;;;;4986045;28;20821;-84
2022/06/07 12:38:26;;;;;;;2.57;1.50;;;25.70;58.60;;;;;;4992479;28;20471;-84
2022/06/07 12:41:00;;;;;;;1.93;1.10;;;25.90;58.20;;;;;;5019340;28;20448;-85
2022/06/07 12:43:29;;;;;;;2.60;1.63;;;26.10;59.30;;;;;;5027842;28;20480;-84
2022/06/07 12:45:59;;;;;;;1.73;1.53;;;26.30;58.00;;;;;;5025521;28;20446;-84
2022/06/07 12:48:27;;;;;;;1.70;1.30;;;26.60;57.30;;;;;;5027806;28;20446;-82
2022/06/07 12:50:55;;;;;;;2.10;1.20;;;26.60;56.30;;;;;;5036622;28;20454;-84
2022/06/07 12:53:24;;;;;;;4.50;1.70;;;26.70;56.30;;;;;;5026088;28;20843;-83
2022/06/07 12:55:58;;;;;;;1.83;1.50;;;26.70;56.50;;;;;;5025136;28;20450;-84
2022/06/07 12:58:29;;;;;;;2.13;1.37;;;26.70;56.90;;;;;;5024376;28;21132;-86
2022/06/07 13:00:55;;;;;;;1.80;1.40;;;26.80;56.40;;;;;;5023423;28;20458;-85
2022/06/07 13:03:27;;;;;;;3.73;1.60;;;26.80;56.40;;;;;;5026627;28;20565;-82
2022/06/07 13:05:59;;;;;;;2.47;1.60;;;27.20;56.20;;;;;;5030050;28;20456;-83
2022/06/07 13:08:33;;;;;;;2.20;1.67;;;27.50;55.70;;;;;;5035224;28;20446;-84
2022/06/07 13:11:01;;;;;;;1.90;1.47;;;28.30;54.60;;;;;;5028104;28;20480;-84
2022/06/07 13:13:32;;;;;;;1.60;1.30;;;29.60;52.80;;;;;;5026515;28;20453;-84
2022/06/07 13:16:02;;;;;;;1.73;1.27;;;29.40;52.30;;;;;;5023303;28;20457;-85
2022/06/07 13:18:31;;;;;;;3.73;1.50;;;28.80;52.60;;;;;;5023805;28;20454;-84
2022/06/07 13:21:25;;;;;;;2.10;1.10;;;28.40;53.30;;;;;;5023018;28;20878;-84
2022/06/07 13:23:54;;;;;;;1.93;1.10;;;28.40;54.00;;;;;;5015024;28;20482;-84
2022/06/07 13:26:26;;;;;;;2.17;1.97;;;29.20;52.60;;;;;;5033202;28;20469;-83
2022/06/07 13:29:09;;;;;;;2.27;1.50;;;29.30;52.00;;;;;;5028194;28;20453;-84